Time;durP1;ratioP1;P1;durP2;ratioP2;P2;SDS_P1;SDS_P2;PMS_P1;PMS_P2;Temp;Humidity;BMP_temperature;BMP_pressure;BME280_temperature;BME280_humidity;BME280_pressure;Samples;Min_cycle;Max_cycle;Signal;HPM_P1;HPM_P2
2022/09/18 00:01:21;;;;;;;9.05;1.15;;;;;;;;;;5027378;28;20502;-58
2022/09/18 00:03:47;;;;;;;3.83;0.60;;;;;;;;;;5027047;28;20438;-59
2022/09/18 00:06:16;;;;;;;6.68;0.75;;;;;;;;;;5027401;28;20041;-58
2022/09/18 00:08:43;;;;;;;6.80;1.08;;;;;;;;;;4987967;28;20062;-59
2022/09/18 00:11:10;;;;;;;6.85;0.73;;;;;;;;;;4988219;28;20042;-59
2022/09/18 00:13:36;;;;;;;6.40;0.63;;;;;;;;;;4987253;28;20050;-58
2022/09/18 00:16:03;;;;;;;5.78;0.73;;;;;;;;;;4987444;28;20039;-55
2022/09/18 00:18:29;;;;;;;8.30;0.85;;;;;;;;;;4987891;28;20158;-59
2022/09/18 00:20:55;;;;;;;15.00;1.30;;;;;;;;;;4987922;28;20049;-56
2022/09/18 00:23:21;;;;;;;8.25;1.35;;;;;;;;;;4988182;28;20548;-59
2022/09/18 00:25:47;;;;;;;7.43;0.63;;;;;;;;;;4987325;28;20074;-57
2022/09/18 00:28:14;;;;;;;5.35;0.73;;;;;;;;;;4987190;28;20074;-59
2022/09/18 00:30:40;;;;;;;4.13;0.60;;;;;;;;;;4987724;28;20125;-59
2022/09/18 00:33:06;;;;;;;7.32;0.75;;;;;;;;;;5002625;28;20077;-55
2022/09/18 00:35:32;;;;;;;9.88;0.98;;;;;;;;;;4985336;28;20042;-59
2022/09/18 00:37:58;;;;;;;6.00;0.80;;;;;;;;;;4987688;28;20278;-59
2022/09/18 00:40:24;;;;;;;5.13;0.73;;;;;;;;;;4983874;28;20507;-58
2022/09/18 00:42:50;;;;;;;4.45;0.57;;;;;;;;;;4987707;28;20641;-59
2022/09/18 00:45:17;;;;;;;10.18;0.70;;;;;;;;;;4986799;28;20038;-56
2022/09/18 00:47:46;;;;;;;8.52;0.70;;;;;;;;;;4986969;28;20038;-59
2022/09/18 00:50:21;;;;;;;9.20;0.60;;;;;;;;;;4987635;28;20045;-59
2022/09/18 00:52:50;;;;;;;7.45;0.93;;;;;;;;;;4983422;28;20047;-58
2022/09/18 00:55:18;;;;;;;11.02;0.90;;;;;;;;;;4987510;28;20396;-57
2022/09/18 00:57:46;;;;;;;10.80;0.80;;;;;;;;;;4987324;28;20088;-59
2022/09/18 01:00:13;;;;;;;8.23;0.80;;;;;;;;;;4986633;28;20100;-58
2022/09/18 01:02:41;;;;;;;5.80;0.73;;;;;;;;;;4987577;28;20121;-58
2022/09/18 01:05:08;;;;;;;12.52;1.33;;;;;;;;;;4987093;28;20046;-58
2022/09/18 01:07:42;;;;;;;8.90;1.40;;;;;;;;;;5008093;28;20136;-59
2022/09/18 01:10:16;;;;;;;5.72;0.60;;;;;;;;;;5027007;28;20088;-58
2022/09/18 01:12:45;;;;;;;7.07;0.70;;;;;;;;;;5008440;28;20069;-58
2022/09/18 01:15:15;;;;;;;8.25;0.80;;;;;;;;;;5026109;28;20052;-58
2022/09/18 01:17:49;;;;;;;10.13;0.75;;;;;;;;;;5026172;28;20445;-59
2022/09/18 01:20:26;;;;;;;5.80;1.35;;;;;;;;;;5008389;28;20041;-59
2022/09/18 01:23:07;;;;;;;10.93;0.93;;;;;;;;;;5026722;28;20049;-58
2022/09/18 01:25:52;;;;;;;5.38;0.45;;;;;;;;;;5026325;28;20048;-58
2022/09/18 01:28:23;;;;;;;5.43;0.70;;;;;;;;;;5025749;28;20057;-59
2022/09/18 01:30:50;;;;;;;5.57;0.45;;;;;;;;;;5026193;28;20073;-57
2022/09/18 01:33:18;;;;;;;8.93;0.88;;;;;;;;;;5026528;28;20045;-59
2022/09/18 01:35:44;;;;;;;;;;;;;;;;;;5026710;28;20535;-59
2022/09/18 01:38:13;;;;;;;8.80;0.70;;;;;;;;;;5026555;28;20017;-59
2022/09/18 01:40:42;;;;;;;7.55;1.15;;;;;;;;;;5025729;28;20037;-59
2022/09/18 01:43:10;;;;;;;5.80;0.80;;;;;;;;;;5023214;28;20723;-56
2022/09/18 01:45:41;;;;;;;6.85;0.82;;;;;;;;;;5007592;28;20483;-58
2022/09/18 01:48:07;;;;;;;5.30;0.70;;;;;;;;;;5021915;28;20072;-58
2022/09/18 01:50:37;;;;;;;8.07;1.17;;;;;;;;;;5022203;28;20073;-59
2022/09/18 01:53:04;;;;;;;7.18;0.40;;;;;;;;;;5022724;28;20073;-58
2022/09/18 01:55:32;;;;;;;6.63;0.75;;;;;;;;;;5026408;28;20049;-59
2022/09/18 01:58:02;;;;;;;9.05;0.80;;;;;;;;;;5024506;28;20045;-58
2022/09/18 02:00:30;;;;;;;8.68;0.50;;;;;;;;;;5012440;28;20045;-59
2022/09/18 02:02:59;;;;;;;8.02;0.63;;;;;;;;;;5029918;28;20041;-59
2022/09/18 02:05:29;;;;;;;9.70;1.05;;;;;;;;;;5029019;28;20064;-59
2022/09/18 02:08:09;;;;;;;10.85;0.60;;;;;;;;;;5028744;28;20084;-58
2022/09/18 02:13:17;;;;;;;11.10;0.68;;;;;;;;;;5018005;26;20045;-59
2022/09/18 02:15:45;;;;;;;9.43;1.85;;;;;;;;;;5049329;28;20049;-58
2022/09/18 02:18:15;;;;;;;9.67;0.80;;;;;;;;;;5049918;28;20052;-57
2022/09/18 02:20:44;;;;;;;7.88;1.25;;;;;;;;;;5049759;28;20124;-59
2022/09/18 02:23:11;;;;;;;8.85;0.73;;;;;;;;;;5049660;28;20486;-59
2022/09/18 02:25:42;;;;;;;6.20;0.60;;;;;;;;;;5049803;28;20060;-59
2022/09/18 02:28:09;;;;;;;5.95;0.50;;;;;;;;;;5048957;28;20119;-59
2022/09/18 02:30:38;;;;;;;15.18;1.70;;;;;;;;;;5046465;28;20028;-58
2022/09/18 02:33:07;;;;;;;11.05;0.80;;;;;;;;;;5049118;28;20131;-58
2022/09/18 02:35:39;;;;;;;10.30;0.57;;;;;;;;;;5049480;28;20041;-59
2022/09/18 02:38:13;;;;;;;7.20;1.70;;;;;;;;;;5049541;28;20076;-59
2022/09/18 02:40:49;;;;;;;9.68;0.65;;;;;;;;;;5047706;28;20076;-58
2022/09/18 02:43:16;;;;;;;5.72;0.40;;;;;;;;;;5048859;28;20048;-59
2022/09/18 02:45:47;;;;;;;5.13;0.60;;;;;;;;;;5048466;28;20397;-58
2022/09/18 02:48:25;;;;;;;7.75;0.70;;;;;;;;;;5049619;28;20280;-58
2022/09/18 02:51:11;;;;;;;8.73;1.15;;;;;;;;;;5049162;28;20041;-58
2022/09/18 02:53:45;;;;;;;3.70;0.40;;;;;;;;;;5048775;28;20041;-58
2022/09/18 02:56:21;;;;;;;8.70;0.60;;;;;;;;;;5047620;28;20112;-59
2022/09/18 02:58:50;;;;;;;6.68;0.80;;;;;;;;;;5048079;28;20049;-58
2022/09/18 03:01:19;;;;;;;3.35;0.50;;;;;;;;;;5047686;28;20045;-59
2022/09/18 03:03:46;;;;;;;11.68;0.70;;;;;;;;;;5048866;28;20227;-59
2022/09/18 03:06:12;;;;;;;12.15;1.02;;;;;;;;;;5048768;28;20043;-58
2022/09/18 03:08:38;;;;;;;3.35;0.40;;;;;;;;;;5048727;28;20053;-58
2022/09/18 03:11:05;;;;;;;8.07;0.77;;;;;;;;;;5047011;28;20543;-58
2022/09/18 03:13:31;;;;;;;5.90;0.50;;;;;;;;;;5044291;28;20042;-57
2022/09/18 03:15:57;;;;;;;6.65;0.60;;;;;;;;;;5049416;28;20045;-58
2022/09/18 03:18:24;;;;;;;10.93;1.05;;;;;;;;;;5048697;28;20048;-59
2022/09/18 03:20:50;;;;;;;5.80;1.35;;;;;;;;;;5048562;28;20482;-58
2022/09/18 03:23:16;;;;;;;6.90;0.50;;;;;;;;;;5048623;28;20478;-58
2022/09/18 03:25:42;;;;;;;4.57;0.70;;;;;;;;;;5047981;28;20491;-58
2022/09/18 03:28:08;;;;;;;8.93;0.60;;;;;;;;;;5047519;28;20049;-59
2022/09/18 03:30:35;;;;;;;5.15;0.50;;;;;;;;;;5048335;28;20502;-59
2022/09/18 03:33:01;;;;;;;9.27;0.50;;;;;;;;;;5044910;28;20107;-57
2022/09/18 03:35:27;;;;;;;3.75;0.30;;;;;;;;;;5049014;28;20041;-54
2022/09/18 03:37:54;;;;;;;5.82;0.57;;;;;;;;;;5047072;28;20053;-59
2022/09/18 03:40:20;;;;;;;10.35;1.17;;;;;;;;;;5048617;28;20843;-59
2022/09/18 03:42:47;;;;;;;5.45;0.47;;;;;;;;;;5046678;28;20037;-59
2022/09/18 03:45:14;;;;;;;6.50;0.65;;;;;;;;;;5048206;28;20655;-59
2022/09/18 03:47:40;;;;;;;7.70;0.70;;;;;;;;;;5047908;28;20077;-58
2022/09/18 03:50:06;;;;;;;7.10;0.52;;;;;;;;;;5048331;28;20056;-58
2022/09/18 03:52:33;;;;;;;5.65;0.50;;;;;;;;;;5048073;28;20041;-59
2022/09/18 03:54:59;;;;;;;7.22;0.40;;;;;;;;;;5048511;28;20041;-59
2022/09/18 03:57:25;;;;;;;5.05;1.10;;;;;;;;;;5048217;28;20124;-59
2022/09/18 03:59:51;;;;;;;6.78;0.70;;;;;;;;;;5046855;28;20049;-58
2022/09/18 04:02:17;;;;;;;4.05;0.40;;;;;;;;;;5047821;28;20136;-59
2022/09/18 04:04:44;;;;;;;3.50;0.38;;;;;;;;;;5047603;28;20497;-58
2022/09/18 04:07:10;;;;;;;3.72;0.50;;;;;;;;;;5047587;28;20045;-58
2022/09/18 04:09:36;;;;;;;4.90;0.40;;;;;;;;;;5047533;28;20116;-59
2022/09/18 04:12:02;;;;;;;5.40;0.40;;;;;;;;;;5047609;28;20114;-59
2022/09/18 04:14:28;;;;;;;12.07;0.80;;;;;;;;;;5044405;28;20087;-54
2022/09/18 04:16:54;;;;;;;2.95;0.70;;;;;;;;;;5047561;28;20731;-58
2022/09/18 04:19:20;;;;;;;2.00;0.20;;;;;;;;;;5047423;28;20040;-58
2022/09/18 04:21:47;;;;;;;5.45;0.30;;;;;;;;;;5046592;28;20037;-59
2022/09/18 04:24:13;;;;;;;4.70;0.50;;;;;;;;;;5047369;28;20517;-58
2022/09/18 04:26:39;;;;;;;5.15;1.25;;;;;;;;;;5045795;28;20039;-59
2022/09/18 04:29:05;;;;;;;5.07;0.45;;;;;;;;;;5046867;28;20124;-58
2022/09/18 04:31:31;;;;;;;5.40;0.40;;;;;;;;;;5046368;28;20129;-58
2022/09/18 04:33:57;;;;;;;6.28;0.68;;;;;;;;;;5047579;28;20049;-56
2022/09/18 04:36:23;;;;;;;2.35;0.30;;;;;;;;;;5046778;28;20069;-59
2022/09/18 04:38:49;;;;;;;6.80;0.60;;;;;;;;;;5046971;28;20090;-57
2022/09/18 04:41:16;;;;;;;5.95;0.40;;;;;;;;;;5047655;28;20036;-59
2022/09/18 04:43:42;;;;;;;3.47;0.40;;;;;;;;;;5046366;28;20044;-58
2022/09/18 04:46:08;;;;;;;6.28;0.60;;;;;;;;;;5047252;28;20052;-59
2022/09/18 04:48:34;;;;;;;3.83;0.30;;;;;;;;;;5047412;28;20041;-58
2022/09/18 04:51:00;;;;;;;8.48;0.88;;;;;;;;;;5043279;28;20049;-59
2022/09/18 04:53:27;;;;;;;11.65;0.70;;;;;;;;;;5047518;28;20076;-58
2022/09/18 04:55:53;;;;;;;7.40;0.57;;;;;;;;;;5047075;28;20106;-59
2022/09/18 04:58:19;;;;;;;2.83;0.40;;;;;;;;;;5046611;28;20033;-59
2022/09/18 05:00:49;;;;;;;7.10;1.15;;;;;;;;;;5047056;28;20070;-59
2022/09/18 05:03:18;;;;;;;5.47;0.50;;;;;;;;;;5046899;28;20045;-58
2022/09/18 05:05:44;;;;;;;7.63;0.65;;;;;;;;;;5046866;28;20108;-59
2022/09/18 05:08:10;;;;;;;5.30;0.40;;;;;;;;;;5046700;28;20102;-56
2022/09/18 05:10:36;;;;;;;4.07;0.70;;;;;;;;;;5045363;28;20118;-59
2022/09/18 05:13:02;;;;;;;3.90;0.40;;;;;;;;;;5046133;28;20063;-55
2022/09/18 05:15:28;;;;;;;5.25;0.60;;;;;;;;;;5046954;28;20037;-58
2022/09/18 05:18:02;;;;;;;3.33;0.40;;;;;;;;;;5046766;28;20498;-59
2022/09/18 05:20:29;;;;;;;4.57;0.50;;;;;;;;;;5047099;28;20055;-58
2022/09/18 05:22:55;;;;;;;6.68;0.60;;;;;;;;;;5046596;28;20044;-59
2022/09/18 05:25:23;;;;;;;4.60;0.40;;;;;;;;;;5046834;28;20517;-59
2022/09/18 05:27:57;;;;;;;10.80;0.63;;;;;;;;;;5046175;28;20041;-59
2022/09/18 05:30:23;;;;;;;6.75;0.35;;;;;;;;;;5047045;28;20045;-58
2022/09/18 05:32:56;;;;;;;3.05;0.45;;;;;;;;;;5046958;28;20049;-59
2022/09/18 05:35:23;;;;;;;14.30;0.73;;;;;;;;;;5050470;28;20078;-58
2022/09/18 05:37:51;;;;;;;5.35;0.52;;;;;;;;;;5050198;28;20044;-58
2022/09/18 05:40:18;;;;;;;7.50;0.60;;;;;;;;;;5050424;28;20056;-58
2022/09/18 05:42:47;;;;;;;6.57;0.85;;;;;;;;;;5050020;28;20490;-58
2022/09/18 05:45:13;;;;;;;;;;;;;;;;;;5050586;28;20087;-59
2022/09/18 05:47:39;;;;;;;12.32;0.40;;;;;;;;;;5049510;28;19921;-58
2022/09/18 05:50:06;;;;;;;2.85;0.47;;;;;;;;;;5049060;28;20045;-58
2022/09/18 05:52:32;;;;;;;4.20;0.60;;;;;;;;;;5049915;28;20122;-59
2022/09/18 05:54:58;;;;;;;10.73;1.00;;;;;;;;;;5048916;28;20037;-57
2022/09/18 05:57:24;;;;;;;4.97;0.80;;;;;;;;;;5049326;28;20498;-58
2022/09/18 05:59:51;;;;;;;8.52;0.60;;;;;;;;;;5049338;28;20765;-57
2022/09/18 06:02:17;;;;;;;2.53;0.50;;;;;;;;;;5048078;28;20045;-59
2022/09/18 06:04:43;;;;;;;4.60;0.35;;;;;;;;;;5048908;28;20041;-58
2022/09/18 06:07:11;;;;;;;4.57;0.50;;;;;;;;;;5048750;28;20047;-59
2022/09/18 06:09:38;;;;;;;4.50;0.50;;;;;;;;;;5049604;28;20133;-59
2022/09/18 06:12:04;;;;;;;5.50;0.40;;;;;;;;;;5048666;28;20063;-60
2022/09/18 06:14:31;;;;;;;4.50;0.45;;;;;;;;;;5046880;28;20033;-58
2022/09/18 06:16:57;;;;;;;4.80;0.40;;;;;;;;;;5049959;28;20088;-59
2022/09/18 06:19:23;;;;;;;8.02;0.65;;;;;;;;;;5049920;28;20048;-59
2022/09/18 06:21:49;;;;;;;9.65;0.60;;;;;;;;;;5049347;28;20115;-59
2022/09/18 06:24:15;;;;;;;5.28;0.60;;;;;;;;;;5049795;28;20387;-59
2022/09/18 06:26:42;;;;;;;7.40;0.50;;;;;;;;;;5049170;28;20047;-60
2022/09/18 06:29:08;;;;;;;4.82;0.30;;;;;;;;;;5048020;28;20037;-59
2022/09/18 06:31:34;;;;;;;3.20;0.50;;;;;;;;;;5041529;28;20086;-59
2022/09/18 06:34:00;;;;;;;6.07;0.47;;;;;;;;;;5042843;28;20041;-59
2022/09/18 06:36:26;;;;;;;7.57;0.75;;;;;;;;;;5045445;28;20083;-59
2022/09/18 06:38:53;;;;;;;5.45;0.45;;;;;;;;;;5038939;28;20509;-59
2022/09/18 06:41:19;;;;;;;3.30;0.35;;;;;;;;;;5032517;28;20041;-59
2022/09/18 06:43:49;;;;;;;4.63;0.40;;;;;;;;;;5032984;28;20171;-59
2022/09/18 06:46:15;;;;;;;3.92;0.40;;;;;;;;;;5029577;28;20513;-58
2022/09/18 06:48:41;;;;;;;2.10;0.40;;;;;;;;;;5037551;28;20045;-59
2022/09/18 06:51:08;;;;;;;4.20;0.28;;;;;;;;;;5030259;28;20048;-60
2022/09/18 06:53:34;;;;;;;6.15;0.40;;;;;;;;;;5034925;28;20049;-57
2022/09/18 06:56:02;;;;;;;47.03;1.63;;;;;;;;;;5034951;28;20040;-59
2022/09/18 06:58:28;;;;;;;6.85;0.40;;;;;;;;;;5035017;28;20044;-59
2022/09/18 07:00:54;;;;;;;14.85;2.03;;;;;;;;;;5043779;28;20128;-59
2022/09/18 07:03:21;;;;;;;8.13;0.60;;;;;;;;;;5029852;28;20405;-58
2022/09/18 07:05:47;;;;;;;5.20;0.63;;;;;;;;;;5034574;28;20540;-58
2022/09/18 07:08:13;;;;;;;6.90;0.52;;;;;;;;;;5029864;28;20081;-59
2022/09/18 07:10:39;;;;;;;6.28;0.73;;;;;;;;;;5039585;28;20052;-58
2022/09/18 07:13:06;;;;;;;4.97;0.50;;;;;;;;;;5030038;28;20064;-59
2022/09/18 07:15:33;;;;;;;2.55;0.40;;;;;;;;;;5031560;28;20077;-60
2022/09/18 07:18:00;;;;;;;7.75;0.40;;;;;;;;;;5034821;28;20061;-59
2022/09/18 07:20:27;;;;;;;2.90;0.35;;;;;;;;;;5037466;28;20037;-59
2022/09/18 07:22:54;;;;;;;7.57;0.88;;;;;;;;;;5030140;28;20103;-58
2022/09/18 07:25:21;;;;;;;8.97;1.20;;;;;;;;;;5034051;28;20051;-59
2022/09/18 07:27:47;;;;;;;9.68;0.90;;;;;;;;;;5031388;28;20380;-59
2022/09/18 07:30:14;;;;;;;5.68;0.55;;;;;;;;;;5027880;28;20038;-59
2022/09/18 07:32:40;;;;;;;4.90;0.55;;;;;;;;;;5027253;28;20065;-59
2022/09/18 07:35:06;;;;;;;3.28;0.43;;;;;;;;;;5035579;28;20078;-59
2022/09/18 07:37:32;;;;;;;5.63;1.02;;;;;;;;;;5034109;28;20045;-59
2022/09/18 07:39:58;;;;;;;5.72;0.68;;;;;;;;;;5036668;28;20136;-59
2022/09/18 07:42:25;;;;;;;8.43;0.63;;;;;;;;;;5040799;28;20056;-59
2022/09/18 07:44:52;;;;;;;4.18;0.43;;;;;;;;;;5048323;28;20594;-58
2022/09/18 07:47:19;;;;;;;8.02;0.63;;;;;;;;;;5047887;28;20055;-58
2022/09/18 07:49:45;;;;;;;5.47;0.50;;;;;;;;;;5047659;28;20048;-58
2022/09/18 07:52:12;;;;;;;5.57;0.40;;;;;;;;;;5040131;28;20683;-59
2022/09/18 07:54:38;;;;;;;3.08;0.40;;;;;;;;;;5032046;28;20509;-59
2022/09/18 07:57:04;;;;;;;3.47;0.52;;;;;;;;;;5031993;28;20469;-58
2022/09/18 07:59:30;;;;;;;5.47;0.93;;;;;;;;;;5037000;28;20493;-59
2022/09/18 08:01:56;;;;;;;6.32;0.40;;;;;;;;;;5036433;28;20049;-59
2022/09/18 08:04:23;;;;;;;6.03;0.63;;;;;;;;;;5035112;28;20483;-59
2022/09/18 08:06:51;;;;;;;7.05;0.65;;;;;;;;;;5026351;28;20064;-59
2022/09/18 08:09:17;;;;;;;2.85;0.40;;;;;;;;;;5033279;28;20509;-58
2022/09/18 08:11:43;;;;;;;3.42;0.40;;;;;;;;;;5030987;28;20487;-58
2022/09/18 08:14:09;;;;;;;9.43;0.68;;;;;;;;;;5035672;28;20128;-58
2022/09/18 08:16:36;;;;;;;3.08;0.20;;;;;;;;;;5034514;28;20048;-59
2022/09/18 08:19:02;;;;;;;3.20;0.40;;;;;;;;;;5037596;28;21065;-59
2022/09/18 08:21:30;;;;;;;9.75;1.00;;;;;;;;;;5034480;28;20541;-59
2022/09/18 08:23:56;;;;;;;0.70;0.30;;;;;;;;;;5036993;28;20065;-58
2022/09/18 08:26:23;;;;;;;4.22;0.30;;;;;;;;;;5038955;28;20370;-59
2022/09/18 08:28:49;;;;;;;2.75;0.40;;;;;;;;;;5034542;28;20060;-59
2022/09/18 08:31:15;;;;;;;3.90;0.30;;;;;;;;;;5035841;28;20083;-59
2022/09/18 08:33:41;;;;;;;11.13;0.70;;;;;;;;;;5035823;28;20038;-58
2022/09/18 08:36:07;;;;;;;3.72;0.30;;;;;;;;;;5034699;28;20087;-57
2022/09/18 08:38:34;;;;;;;4.93;0.38;;;;;;;;;;5039235;28;20047;-59
2022/09/18 08:41:23;;;;;;;7.28;0.73;;;;;;;;;;5030931;28;20108;-57
2022/09/18 08:43:57;;;;;;;3.63;0.63;;;;;;;;;;5027873;28;20059;-59
2022/09/18 08:46:26;;;;;;;2.38;0.35;;;;;;;;;;5023590;28;20046;-58
2022/09/18 08:48:52;;;;;;;4.72;0.45;;;;;;;;;;5029399;28;20045;-58
2022/09/18 08:51:39;;;;;;;5.00;0.68;;;;;;;;;;5036443;28;20052;-58
2022/09/18 08:54:16;;;;;;;3.95;0.30;;;;;;;;;;5043402;28;20045;-58
2022/09/18 08:56:42;;;;;;;5.13;0.40;;;;;;;;;;5030188;28;20095;-58
2022/09/18 08:59:15;;;;;;;4.82;0.30;;;;;;;;;;5030553;28;20048;-58
2022/09/18 09:01:49;;;;;;;5.88;0.40;;;;;;;;;;5032882;28;20032;-58
2022/09/18 09:04:18;;;;;;;3.63;0.40;;;;;;;;;;5036409;28;20056;-58
2022/09/18 09:06:54;;;;;;;5.70;0.50;;;;;;;;;;5034178;28;20084;-58
2022/09/18 09:09:28;;;;;;;3.08;0.82;;;;;;;;;;5037511;28;20479;-57
2022/09/18 09:12:14;;;;;;;5.75;0.50;;;;;;;;;;5035839;28;20323;-58
2022/09/18 09:14:46;;;;;;;2.20;0.30;;;;;;;;;;5037498;28;20116;-58
2022/09/18 09:17:17;;;;;;;7.38;0.50;;;;;;;;;;5036680;28;20048;-59
2022/09/18 09:19:52;;;;;;;8.10;0.63;;;;;;;;;;5038003;28;20118;-58
2022/09/18 09:22:24;;;;;;;3.15;0.80;;;;;;;;;;5037578;28;20416;-58
2022/09/18 09:25:04;;;;;;;2.03;0.30;;;;;;;;;;5035041;28;20503;-58
2022/09/18 09:27:33;;;;;;;3.28;0.30;;;;;;;;;;5036001;28;20092;-58
2022/09/18 09:30:05;;;;;;;2.38;0.47;;;;;;;;;;5029657;28;20052;-59
2022/09/18 09:32:34;;;;;;;4.13;0.47;;;;;;;;;;5026321;28;20128;-59
2022/09/18 09:35:07;;;;;;;1.80;0.30;;;;;;;;;;5030126;28;20068;-58
2022/09/18 09:37:38;;;;;;;11.38;1.77;;;;;;;;;;5029062;28;20045;-58
2022/09/18 09:40:07;;;;;;;5.53;0.50;;;;;;;;;;5044035;28;20041;-57
2022/09/18 09:42:39;;;;;;;17.90;2.63;;;;;;;;;;5048015;28;20065;-59
2022/09/18 09:45:05;;;;;;;5.68;0.65;;;;;;;;;;5039300;28;20091;-59
2022/09/18 09:47:39;;;;;;;3.05;0.88;;;;;;;;;;5037895;28;20056;-58
2022/09/18 09:50:15;;;;;;;6.57;0.77;;;;;;;;;;5033831;28;20471;-58
2022/09/18 09:52:42;;;;;;;1.55;0.28;;;;;;;;;;5034032;28;20183;-58
2022/09/18 09:55:12;;;;;;;4.68;0.45;;;;;;;;;;5032177;28;20045;-58
2022/09/18 09:57:43;;;;;;;3.40;0.57;;;;;;;;;;5029449;28;20061;-58
2022/09/18 10:00:17;;;;;;;4.78;0.70;;;;;;;;;;5034214;28;20041;-57
2022/09/18 10:03:01;;;;;;;6.97;0.60;;;;;;;;;;5035039;28;20359;-58
2022/09/18 10:05:31;;;;;;;2.25;0.30;;;;;;;;;;5036166;28;20072;-55
2022/09/18 10:08:20;;;;;;;4.68;0.52;;;;;;;;;;5035900;28;20051;-56
2022/09/18 10:10:54;;;;;;;2.55;0.20;;;;;;;;;;5036060;28;20135;-58
2022/09/18 10:13:24;;;;;;;2.80;0.30;;;;;;;;;;5035690;28;20508;-57
2022/09/18 10:15:53;;;;;;;5.28;0.60;;;;;;;;;;5028419;28;20036;-57
2022/09/18 10:18:25;;;;;;;5.10;0.50;;;;;;;;;;5028663;28;20054;-56
2022/09/18 10:20:53;;;;;;;3.40;0.77;;;;;;;;;;5030249;28;20787;-57
2022/09/18 10:23:23;;;;;;;4.28;0.30;;;;;;;;;;5032990;28;20142;-58
2022/09/18 10:25:51;;;;;;;3.42;0.80;;;;;;;;;;5034591;28;20052;-57
2022/09/18 10:28:18;;;;;;;3.72;0.50;;;;;;;;;;5032904;28;20041;-58
2022/09/18 10:30:55;;;;;;;3.65;0.40;;;;;;;;;;5028578;28;20060;-57
2022/09/18 10:33:33;;;;;;;2.50;0.22;;;;;;;;;;5029374;28;20050;-57
2022/09/18 10:36:02;;;;;;;4.82;0.77;;;;;;;;;;5028431;28;20108;-58
2022/09/18 10:38:31;;;;;;;4.22;0.52;;;;;;;;;;5029210;28;20064;-57
2022/09/18 10:41:10;;;;;;;4.55;0.63;;;;;;;;;;5031645;28;20073;-57
2022/09/18 10:43:52;;;;;;;6.43;0.47;;;;;;;;;;5045051;28;20072;-58
2022/09/18 10:46:24;;;;;;;4.40;0.40;;;;;;;;;;5046310;28;20049;-57
2022/09/18 10:48:50;;;;;;;8.57;0.68;;;;;;;;;;5046123;28;20052;-58
2022/09/18 10:51:20;;;;;;;4.95;0.30;;;;;;;;;;5047362;28;20079;-57
2022/09/18 10:53:59;;;;;;;4.40;0.57;;;;;;;;;;5046728;28;20060;-57
2022/09/18 10:56:25;;;;;;;3.50;0.50;;;;;;;;;;5046340;28;20495;-59
2022/09/18 10:58:51;;;;;;;4.80;1.10;;;;;;;;;;5047089;28;20040;-57
2022/09/18 11:01:17;;;;;;;5.28;0.75;;;;;;;;;;5047397;28;20076;-58
2022/09/18 11:03:55;;;;;;;5.95;0.73;;;;;;;;;;5046538;28;20481;-58
2022/09/18 11:06:23;;;;;;;9.15;0.63;;;;;;;;;;5046623;28;20045;-57
2022/09/18 11:08:51;;;;;;;3.50;0.57;;;;;;;;;;5046313;28;20087;-57
2022/09/18 11:11:22;;;;;;;8.38;0.40;;;;;;;;;;5046889;28;20150;-58
2022/09/18 11:13:51;;;;;;;5.15;0.40;;;;;;;;;;5046450;28;20045;-58
2022/09/18 11:16:22;;;;;;;6.43;0.45;;;;;;;;;;5047006;28;20048;-58
2022/09/18 11:18:59;;;;;;;5.78;0.47;;;;;;;;;;5045466;28;20123;-58
2022/09/18 11:21:25;;;;;;;8.18;0.43;;;;;;;;;;5046412;28;20037;-57
2022/09/18 11:24:01;;;;;;;7.53;0.50;;;;;;;;;;5045695;28;20045;-58
2022/09/18 11:26:28;;;;;;;7.45;0.60;;;;;;;;;;5046198;28;20041;-57
2022/09/18 11:28:58;;;;;;;6.68;0.60;;;;;;;;;;5046197;28;20138;-57
2022/09/18 11:31:24;;;;;;;1.73;0.30;;;;;;;;;;5043941;28;20041;-58
2022/09/18 11:33:53;;;;;;;6.60;0.45;;;;;;;;;;5045936;28;20044;-58
2022/09/18 11:36:25;;;;;;;4.95;0.50;;;;;;;;;;5046074;28;20077;-58
2022/09/18 11:38:51;;;;;;;8.82;0.65;;;;;;;;;;5044427;28;20081;-57
2022/09/18 11:41:24;;;;;;;6.72;1.00;;;;;;;;;;5043697;28;20398;-59
2022/09/18 11:44:14;;;;;;;8.13;0.50;;;;;;;;;;5045179;28;20041;-58
2022/09/18 11:46:51;;;;;;;5.13;0.50;;;;;;;;;;5045101;28;20045;-57
2022/09/18 11:49:19;;;;;;;10.95;0.70;;;;;;;;;;5045260;28;21489;-58
2022/09/18 11:51:57;;;;;;;2.85;0.40;;;;;;;;;;5032713;28;20048;-58
2022/09/18 11:54:24;;;;;;;3.90;0.70;;;;;;;;;;5038472;28;20047;-56
2022/09/18 11:56:54;;;;;;;10.90;0.88;;;;;;;;;;5044430;28;20957;-56
2022/09/18 11:59:37;;;;;;;6.43;0.47;;;;;;;;;;5044730;28;20045;-56
2022/09/18 12:02:12;;;;;;;6.18;0.77;;;;;;;;;;5044965;28;20045;-56
2022/09/18 12:04:42;;;;;;;7.80;1.10;;;;;;;;;;5044525;28;20681;-56
2022/09/18 12:07:13;;;;;;;8.35;0.70;;;;;;;;;;5045157;28;20094;-56
2022/09/18 12:09:51;;;;;;;5.68;0.70;;;;;;;;;;5044940;28;20076;-57
2022/09/18 12:12:24;;;;;;;3.97;0.50;;;;;;;;;;5043635;28;20063;-56
2022/09/18 12:14:56;;;;;;;9.43;1.10;;;;;;;;;;5039515;28;20041;-56
2022/09/18 12:17:26;;;;;;;8.05;1.05;;;;;;;;;;5044838;28;20053;-58
2022/09/18 12:19:55;;;;;;;5.50;0.77;;;;;;;;;;5043989;28;20487;-57
2022/09/18 12:22:22;;;;;;;7.38;0.77;;;;;;;;;;5045466;28;20285;-58
2022/09/18 12:24:48;;;;;;;7.80;0.63;;;;;;;;;;5043602;28;20076;-57
2022/09/18 12:27:14;;;;;;;3.55;0.65;;;;;;;;;;5043078;28;20098;-57
2022/09/18 12:29:47;;;;;;;9.20;1.00;;;;;;;;;;5045300;28;20128;-57
2022/09/18 12:32:29;;;;;;;4.82;0.80;;;;;;;;;;5044866;28;20613;-56
2022/09/18 12:35:02;;;;;;;5.82;0.75;;;;;;;;;;5043955;28;20053;-57
2022/09/18 12:37:31;;;;;;;6.10;0.70;;;;;;;;;;5046498;28;20136;-57
2022/09/18 12:40:00;;;;;;;10.68;1.52;;;;;;;;;;5045505;28;20612;-55
2022/09/18 12:42:30;;;;;;;11.82;0.80;;;;;;;;;;5042049;28;20383;-57
2022/09/18 12:45:03;;;;;;;7.47;0.75;;;;;;;;;;5045173;28;20742;-57
2022/09/18 12:47:30;;;;;;;11.77;0.95;;;;;;;;;;5042633;28;20059;-57
2022/09/18 12:50:12;;;;;;;11.60;0.77;;;;;;;;;;5045498;28;20533;-57
2022/09/18 12:52:51;;;;;;;9.27;0.80;;;;;;;;;;5041147;28;20126;-57
2022/09/18 12:55:20;;;;;;;3.85;0.50;;;;;;;;;;5045471;28;20048;-56
2022/09/18 12:57:46;;;;;;;8.27;0.60;;;;;;;;;;5043801;28;20040;-57
2022/09/18 13:00:15;;;;;;;6.95;0.93;;;;;;;;;;5041837;28;20045;-57
2022/09/18 13:02:47;;;;;;;5.72;0.70;;;;;;;;;;5040923;28;20135;-56
2022/09/18 13:05:17;;;;;;;4.93;0.63;;;;;;;;;;5040387;28;20382;-56
2022/09/18 13:07:49;;;;;;;6.60;0.50;;;;;;;;;;5041063;28;20156;-57
2022/09/18 13:10:23;;;;;;;6.35;0.70;;;;;;;;;;5042015;28;20033;-56
2022/09/18 13:13:09;;;;;;;4.00;0.50;;;;;;;;;;5041733;28;20057;-56
2022/09/18 13:15:40;;;;;;;4.28;0.50;;;;;;;;;;5041079;28;20060;-57
2022/09/18 13:18:15;;;;;;;4.30;0.43;;;;;;;;;;5041818;28;20068;-57
2022/09/18 13:20:43;;;;;;;4.10;0.40;;;;;;;;;;5038610;28;20033;-56
2022/09/18 13:23:16;;;;;;;3.20;0.52;;;;;;;;;;5041219;28;20044;-57
2022/09/18 13:25:43;;;;;;;2.67;0.50;;;;;;;;;;5039624;28;20051;-57
2022/09/18 13:28:12;;;;;;;5.03;0.80;;;;;;;;;;5040880;28;20045;-58
2022/09/18 13:30:38;;;;;;;7.25;0.52;;;;;;;;;;5040941;28;20047;-57
2022/09/18 13:33:04;;;;;;;7.88;0.57;;;;;;;;;;5041478;28;20079;-58
2022/09/18 13:35:33;;;;;;;6.30;0.70;;;;;;;;;;5039877;28;20588;-55
2022/09/18 13:38:09;;;;;;;4.90;0.40;;;;;;;;;;5042941;28;20088;-57
2022/09/18 13:40:37;;;;;;;7.68;0.60;;;;;;;;;;5042234;28;20040;-58
2022/09/18 13:43:22;;;;;;;7.20;0.57;;;;;;;;;;5041778;28;20612;-56
2022/09/18 13:45:49;;;;;;;4.80;0.70;;;;;;;;;;5042413;28;20040;-56
2022/09/18 13:48:15;;;;;;;7.32;0.63;;;;;;;;;;5042211;28;20053;-57
2022/09/18 13:50:50;;;;;;;3.63;0.85;;;;;;;;;;5033358;28;20103;-56
2022/09/18 13:53:37;;;;;;;5.93;0.55;;;;;;;;;;5036785;28;20052;-57
2022/09/18 13:56:04;;;;;;;3.80;0.60;;;;;;;;;;5044525;28;20128;-56
2022/09/18 13:58:30;;;;;;;7.28;0.73;;;;;;;;;;5044113;28;20041;-57
2022/09/18 14:00:57;;;;;;;5.60;0.70;;;;;;;;;;5046079;28;20044;-56
2022/09/18 14:03:23;;;;;;;6.30;0.55;;;;;;;;;;5043574;28;21988;-57
2022/09/18 14:05:50;;;;;;;6.88;0.60;;;;;;;;;;5045222;28;20041;-55
2022/09/18 14:08:27;;;;;;;5.57;0.60;;;;;;;;;;5044851;28;20072;-57
2022/09/18 14:10:54;;;;;;;12.35;0.65;;;;;;;;;;5044479;28;20102;-57
2022/09/18 14:13:28;;;;;;;6.80;0.75;;;;;;;;;;5045487;28;20059;-56
2022/09/18 14:15:55;;;;;;;6.93;0.90;;;;;;;;;;5044951;28;20057;-57
2022/09/18 14:18:25;;;;;;;6.05;0.47;;;;;;;;;;5043374;28;20120;-56
2022/09/18 14:20:53;;;;;;;1.85;0.40;;;;;;;;;;5043050;28;20041;-57
2022/09/18 14:23:19;;;;;;;;;;;;;;;;;;5042128;28;20131;-57
2022/09/18 14:25:47;;;;;;;10.00;0.50;;;;;;;;;;5043293;28;20035;-56
2022/09/18 14:28:15;;;;;;;9.27;0.70;;;;;;;;;;5035354;28;20082;-57
2022/09/18 14:30:41;;;;;;;5.60;0.57;;;;;;;;;;5044714;28;20045;-57
2022/09/18 14:33:08;;;;;;;10.10;0.93;;;;;;;;;;5042720;28;20047;-56
2022/09/18 14:35:38;;;;;;;3.50;0.52;;;;;;;;;;5045494;28;20046;-56
2022/09/18 14:38:27;;;;;;;7.15;0.65;;;;;;;;;;5045152;28;20529;-56
2022/09/18 14:40:57;;;;;;;7.03;0.77;;;;;;;;;;5041221;28;20036;-57
2022/09/18 14:43:23;;;;;;;5.47;0.60;;;;;;;;;;5040945;28;20094;-56
2022/09/18 14:45:50;;;;;;;6.80;0.65;;;;;;;;;;5043959;28;20114;-57
2022/09/18 14:48:21;;;;;;;3.67;0.90;;;;;;;;;;5042590;28;20041;-57
2022/09/18 14:50:58;;;;;;;11.27;1.27;;;;;;;;;;5041219;28;20080;-57
2022/09/18 14:53:26;;;;;;;6.82;0.50;;;;;;;;;;5042085;28;20462;-57
2022/09/18 14:55:55;;;;;;;3.67;0.45;;;;;;;;;;5043527;28;20056;-58
2022/09/18 14:58:22;;;;;;;6.82;0.77;;;;;;;;;;5044253;28;20043;-57